createdAt,value
2022-07-28T00:00:08.394Z,44.83
2022-07-28T00:05:11.754Z,45.14
2022-07-28T00:10:14.670Z,45.23
2022-07-28T00:15:17.845Z,45.12
2022-07-28T00:20:21.450Z,45.56
2022-07-28T00:25:24.712Z,45.33
2022-07-28T00:30:27.690Z,45.63
2022-07-28T00:35:31.779Z,45.64
2022-07-28T00:40:52.900Z,45.89
2022-07-28T00:45:55.707Z,46.04
2022-07-28T00:50:58.671Z,46.04
2022-07-28T00:56:05.388Z,46.31
2022-07-28T01:01:11.972Z,46.61
2022-07-28T01:06:39.612Z,46.66
2022-07-28T01:12:02.471Z,46.77
2022-07-28T01:17:33.325Z,46.88
2022-07-28T01:22:57.050Z,46.86
2022-07-28T01:28:23.684Z,47.04
2022-07-28T01:33:55.186Z,47.99
2022-07-28T01:39:00.468Z,48.59
2022-07-28T01:44:12.255Z,48.56
2022-07-28T01:49:18.346Z,49.00
2022-07-28T01:54:24.771Z,49.54
2022-07-28T01:59:31.822Z,49.67
2022-07-28T02:04:40.353Z,49.63
2022-07-28T02:09:45.959Z,49.97
2022-07-28T02:14:51.092Z,50.31
2022-07-28T02:19:55.584Z,50.48
2022-07-28T02:24:59.223Z,50.63
2022-07-28T02:30:56.661Z,50.78
2022-07-28T02:36:10.839Z,51.13
2022-07-28T02:41:24.813Z,51.09
2022-07-28T02:46:38.378Z,51.38
2022-07-28T02:51:43.827Z,51.35
2022-07-28T02:56:53.905Z,51.56
2022-07-28T03:01:59.171Z,51.86
2022-07-28T03:07:02.491Z,52.06
2022-07-28T03:12:05.911Z,52.04
2022-07-28T03:17:09.257Z,51.95
2022-07-28T03:22:12.500Z,51.60
2022-07-28T03:27:31.441Z,51.98
2022-07-28T03:32:40.513Z,52.22
2022-07-28T03:38:07.576Z,52.41
2022-07-28T03:43:11.215Z,52.42
2022-07-28T03:48:15.120Z,52.67
2022-07-28T03:53:25.832Z,53.18
2022-07-28T03:58:29.299Z,53.10
2022-07-28T04:03:36.465Z,52.89
2022-07-28T04:08:48.123Z,52.70
2022-07-28T04:13:51.356Z,53.05
2022-07-28T04:18:54.227Z,53.07
2022-07-28T04:24:01.638Z,53.37
2022-07-28T04:29:05.249Z,53.38
2022-07-28T04:34:08.159Z,53.45
2022-07-28T04:39:13.953Z,53.51
2022-07-28T04:44:17.859Z,53.73
2022-07-28T04:49:20.976Z,53.88
2022-07-28T04:54:26.680Z,53.82
2022-07-28T04:59:29.983Z,53.95
2022-07-28T05:04:35.268Z,53.99
2022-07-28T05:09:41.064Z,54.44
2022-07-28T05:14:44.065Z,54.25
2022-07-28T05:19:46.977Z,53.87
2022-07-28T05:24:49.903Z,53.38
2022-07-28T05:29:53.959Z,53.42
2022-07-28T05:34:56.753Z,53.12
2022-07-28T05:39:59.774Z,52.56
2022-07-28T05:45:16.423Z,52.56
2022-07-28T05:50:22.825Z,52.70
2022-07-28T05:55:25.981Z,52.17
2022-07-28T06:00:29.279Z,51.15
2022-07-28T06:05:32.728Z,51.43
2022-07-28T06:10:55.228Z,51.24
2022-07-28T06:15:59.865Z,49.74
2022-07-28T06:21:02.796Z,49.71
2022-07-28T06:26:05.665Z,48.83
2022-07-28T06:31:08.492Z,48.41
2022-07-28T06:36:11.370Z,48.87
2022-07-28T06:41:14.273Z,48.06
2022-07-28T06:46:19.470Z,48.23
2022-07-28T06:51:23.358Z,47.87
2022-07-28T06:56:26.269Z,47.62
2022-07-28T07:01:29.535Z,47.00
2022-07-28T07:06:32.431Z,46.24
2022-07-28T07:11:37.188Z,46.19
2022-07-28T07:16:40.071Z,45.53
2022-07-28T07:21:43.045Z,45.27
2022-07-28T07:26:45.862Z,45.49
2022-07-28T07:31:52.824Z,45.05
2022-07-28T07:36:56.253Z,44.75
2022-07-28T07:41:59.446Z,44.46
2022-07-28T07:47:04.119Z,43.93
2022-07-28T07:52:06.974Z,44.55
2022-07-28T07:57:10.654Z,44.21
2022-07-28T08:02:13.525Z,43.99
2022-07-28T08:07:16.377Z,43.88
2022-07-28T08:12:25.102Z,43.18
2022-07-28T08:17:28.338Z,42.92
2022-07-28T08:22:31.404Z,42.01
2022-07-28T08:27:34.141Z,41.21
2022-07-28T08:32:36.939Z,40.81
2022-07-28T08:37:40.264Z,40.23
2022-07-28T08:43:00.283Z,39.66
2022-07-28T08:48:08.806Z,38.36
2022-07-28T08:53:15.187Z,38.21
2022-07-28T08:58:18.450Z,38.11
2022-07-28T09:03:21.350Z,37.69
2022-07-28T09:08:25.133Z,36.89
2022-07-28T09:13:27.900Z,37.26
2022-07-28T09:18:31.086Z,37.15
2022-07-28T09:23:49.781Z,37.10
2022-07-28T09:28:59.085Z,36.03
2022-07-28T09:34:04.806Z,35.36
2022-07-28T09:39:08.544Z,35.56
2022-07-28T09:44:22.081Z,33.99
2022-07-28T09:49:43.411Z,34.14
2022-07-28T09:55:08.056Z,33.85
2022-07-28T10:00:14.590Z,33.33
2022-07-28T10:05:19.341Z,32.98
2022-07-28T10:10:22.449Z,32.87
2022-07-28T10:15:50.656Z,32.43
2022-07-28T10:20:54.182Z,31.55
2022-07-28T10:25:58.804Z,31.30
2022-07-28T10:31:04.900Z,30.77
2022-07-28T10:36:09.682Z,31.38
2022-07-28T10:41:15.183Z,30.94
2022-07-28T10:46:18.372Z,31.10
2022-07-28T10:51:22.077Z,31.56
2022-07-28T10:56:34.369Z,31.26
2022-07-28T11:01:50.355Z,31.78
2022-07-28T11:07:13.982Z,31.51
2022-07-28T11:12:36.855Z,31.61
2022-07-28T11:17:41.764Z,30.36
2022-07-28T11:22:44.772Z,29.84
2022-07-28T11:27:51.993Z,29.20
2022-07-28T11:32:55.250Z,28.74
2022-07-28T11:38:01.477Z,28.76
2022-07-28T11:43:31.355Z,27.79
2022-07-28T11:48:42.681Z,28.48
2022-07-28T11:53:53.284Z,28.70
2022-07-28T11:59:02.361Z,28.57
2022-07-28T12:04:17.262Z,28.95
2022-07-28T12:09:25.470Z,29.12
2022-07-28T12:14:30.109Z,28.72
2022-07-28T12:19:33.709Z,28.54
2022-07-28T12:24:44.714Z,29.09
2022-07-28T12:30:02.752Z,28.86
2022-07-28T12:35:06.235Z,30.21
2022-07-28T12:40:12.829Z,29.89
2022-07-28T12:45:15.680Z,29.92
2022-07-28T12:50:20.210Z,30.00
2022-07-28T12:55:27.153Z,29.94
2022-07-28T13:00:35.893Z,30.14
2022-07-28T13:05:58.372Z,29.56
2022-07-28T13:11:02.080Z,28.25
2022-07-28T13:16:31.338Z,28.06
2022-07-28T13:21:58.548Z,27.82
2022-07-28T13:27:03.960Z,27.32
2022-07-28T13:32:08.080Z,26.69
2022-07-28T13:37:14.757Z,26.38
2022-07-28T13:42:18.633Z,25.83
2022-07-28T13:47:21.445Z,25.88
2022-07-28T13:52:32.676Z,25.55
2022-07-28T13:57:37.498Z,25.88
2022-07-28T14:02:49.241Z,25.69
2022-07-28T14:07:52.336Z,25.67
2022-07-28T14:12:55.169Z,26.35
2022-07-28T14:17:58.212Z,27.18
2022-07-28T14:23:01.926Z,27.82
2022-07-28T14:28:05.376Z,28.22
2022-07-28T14:33:08.301Z,27.90
2022-07-28T14:43:34.137Z,27.93
2022-07-28T14:48:36.962Z,28.38
2022-07-28T14:53:43.418Z,28.75
2022-07-28T14:58:55.087Z,29.10
2022-07-28T15:03:57.951Z,29.45
2022-07-28T15:09:02.234Z,29.98
2022-07-28T15:14:05.418Z,30.97
2022-07-28T15:19:08.431Z,29.99
2022-07-28T15:24:11.935Z,27.98
2022-07-28T15:29:14.978Z,27.53
2022-07-28T15:34:18.401Z,27.17
2022-07-28T15:39:23.136Z,27.65
2022-07-28T15:44:26.591Z,27.65
2022-07-28T15:49:29.524Z,27.67
2022-07-28T15:54:33.547Z,27.87
2022-07-28T15:59:49.705Z,27.96
2022-07-28T16:04:54.516Z,27.78
2022-07-28T16:09:57.477Z,27.98
2022-07-28T16:15:00.419Z,28.50
2022-07-28T16:20:04.912Z,28.82
2022-07-28T16:25:16.949Z,29.52
2022-07-28T16:30:20.614Z,29.31
2022-07-28T16:35:23.393Z,29.44
2022-07-28T16:40:26.368Z,29.15
2022-07-28T16:45:31.042Z,29.15
2022-07-28T16:50:34.609Z,29.10
2022-07-28T16:55:37.538Z,28.50
2022-07-28T17:00:40.733Z,28.38
2022-07-28T17:05:45.254Z,28.82
2022-07-28T17:10:48.469Z,28.65
2022-07-28T17:15:55.415Z,29.38
2022-07-28T17:20:58.267Z,29.59
2022-07-28T17:27:04.958Z,29.92
2022-07-28T17:31:28.369Z,30.14
2022-07-28T17:36:37.240Z,30.75
2022-07-28T17:41:41.736Z,31.34
2022-07-28T17:46:46.607Z,32.11
2022-07-28T17:51:50.182Z,32.19
2022-07-28T17:56:53.115Z,32.77
2022-07-28T18:01:56.302Z,32.55
2022-07-28T18:06:59.074Z,32.62
2022-07-28T18:12:02.017Z,33.28
2022-07-28T18:17:04.905Z,33.83
2022-07-28T18:22:07.872Z,33.82
2022-07-28T18:27:11.355Z,33.86
2022-07-28T18:32:15.284Z,34.16
2022-07-28T18:37:18.163Z,34.51
2022-07-28T18:42:21.603Z,34.63
2022-07-28T18:47:28.017Z,34.95
2022-07-28T18:52:30.848Z,35.53
2022-07-28T18:57:34.656Z,35.89
2022-07-28T19:02:39.105Z,36.02
2022-07-28T19:07:42.069Z,36.17
2022-07-28T19:12:46.465Z,36.41
2022-07-28T19:18:08.880Z,36.65
2022-07-28T19:23:12.357Z,37.17
2022-07-28T19:28:16.194Z,37.28
2022-07-28T19:33:21.363Z,37.48
2022-07-28T19:38:24.415Z,38.06
2022-07-28T19:43:27.323Z,38.41
2022-07-28T19:48:30.116Z,39.23
2022-07-28T19:53:34.526Z,39.64
2022-07-28T19:58:39.931Z,39.78
2022-07-28T20:04:00.878Z,40.18
2022-07-28T20:09:06.448Z,40.37
2022-07-28T20:14:09.183Z,40.94
2022-07-28T20:19:12.205Z,41.64
2022-07-28T20:24:15.819Z,41.92
2022-07-28T20:29:19.670Z,42.33
2022-07-28T20:34:22.544Z,42.96
2022-07-28T20:39:43.825Z,43.03
2022-07-28T20:44:47.207Z,43.39
2022-07-28T20:49:51.102Z,43.25
2022-07-28T20:54:54.961Z,43.66
2022-07-28T20:59:58.014Z,43.85
2022-07-28T21:05:01.081Z,45.03
2022-07-28T21:10:05.774Z,44.75
2022-07-28T21:15:09.642Z,44.76
2022-07-28T21:20:12.834Z,45.01
2022-07-28T21:25:15.633Z,44.92
2022-07-28T21:30:18.432Z,45.05
2022-07-28T21:35:21.228Z,45.04
2022-07-28T21:40:24.207Z,44.78
2022-07-28T21:45:27.184Z,44.37
2022-07-28T21:50:30.106Z,44.44
2022-07-28T21:55:33.235Z,45.87
2022-07-28T22:00:36.025Z,46.10
2022-07-28T22:05:38.896Z,45.97
2022-07-28T22:10:41.650Z,46.10
2022-07-28T22:15:45.595Z,46.18
2022-07-28T22:20:48.578Z,46.62
2022-07-28T22:25:51.382Z,46.75
2022-07-28T22:30:56.191Z,47.12
2022-07-28T22:35:59.099Z,47.10
2022-07-28T22:41:01.949Z,47.44
2022-07-28T22:46:04.827Z,47.50
2022-07-28T22:51:13.960Z,47.78
2022-07-28T22:56:17.303Z,47.69
2022-07-28T23:01:20.192Z,47.77
2022-07-28T23:06:23.281Z,47.84
2022-07-28T23:11:26.052Z,47.88
2022-07-28T23:16:29.015Z,48.21
2022-07-28T23:21:31.853Z,48.61
2022-07-28T23:26:34.595Z,48.63
2022-07-28T23:31:37.598Z,48.76
2022-07-28T23:36:40.533Z,48.73
2022-07-28T23:41:43.727Z,48.46
2022-07-28T23:46:46.779Z,48.59
2022-07-28T23:51:49.747Z,49.10
2022-07-28T23:56:56.493Z,48.69
